sensor_id;sensor_type;location;lat;lon;timestamp;pressure;altitude;pressure_sealevel;temperature;humidity
74310;BME280;62722;51.142;17.052;2022-08-05T00:01:32;100198.91;;;22.33;55.98
74310;BME280;62722;51.142;17.052;2022-08-05T00:03:59;100192.16;;;22.38;55.88
74310;BME280;62722;51.142;17.052;2022-08-05T00:06:26;100190.47;;;22.37;55.53
74310;BME280;62722;51.142;17.052;2022-08-05T00:08:56;100184.56;;;22.10;56.24
74310;BME280;62722;51.142;17.052;2022-08-05T00:11:25;100189.69;;;21.97;57.25
74310;BME280;62722;51.142;17.052;2022-08-05T00:13:52;100191.50;;;22.05;56.78
74310;BME280;62722;51.142;17.052;2022-08-05T00:16:20;100182.47;;;21.90;57.28
74310;BME280;62722;51.142;17.052;2022-08-05T00:18:48;100190.06;;;21.94;57.08
74310;BME280;62722;51.142;17.052;2022-08-05T00:21:16;100188.06;;;21.80;57.64
74310;BME280;62722;51.142;17.052;2022-08-05T00:23:45;100183.03;;;21.77;57.80
74310;BME280;62722;51.142;17.052;2022-08-05T00:26:16;100174.53;;;21.65;57.66
74310;BME280;62722;51.142;17.052;2022-08-05T00:28:44;100178.34;;;21.71;57.87
74310;BME280;62722;51.142;17.052;2022-08-05T00:31:12;100178.88;;;21.58;58.06
74310;BME280;62722;51.142;17.052;2022-08-05T00:33:39;100179.38;;;21.62;58.20
74310;BME280;62722;51.142;17.052;2022-08-05T00:36:06;100177.88;;;21.67;58.13
74310;BME280;62722;51.142;17.052;2022-08-05T00:38:34;100173.69;;;21.65;58.15
74310;BME280;62722;51.142;17.052;2022-08-05T00:41:03;100168.84;;;21.52;58.38
74310;BME280;62722;51.142;17.052;2022-08-05T00:43:36;100169.56;;;21.46;58.42
74310;BME280;62722;51.142;17.052;2022-08-05T00:46:03;100170.41;;;21.47;58.65
74310;BME280;62722;51.142;17.052;2022-08-05T00:48:31;100168.25;;;21.34;58.89
74310;BME280;62722;51.142;17.052;2022-08-05T00:50:58;100168.22;;;21.42;58.83
74310;BME280;62722;51.142;17.052;2022-08-05T00:53:25;100163.00;;;21.49;58.65
74310;BME280;62722;51.142;17.052;2022-08-05T00:55:53;100162.63;;;21.52;58.48
74310;BME280;62722;51.142;17.052;2022-08-05T00:58:20;100174.13;;;21.29;58.94
74310;BME280;62722;51.142;17.052;2022-08-05T01:00:49;100163.72;;;21.26;59.06
74310;BME280;62722;51.142;17.052;2022-08-05T01:03:16;100155.53;;;21.12;59.52
74310;BME280;62722;51.142;17.052;2022-08-05T01:05:44;100163.44;;;21.13;59.53
74310;BME280;62722;51.142;17.052;2022-08-05T01:08:11;100155.00;;;21.08;60.01
74310;BME280;62722;51.142;17.052;2022-08-05T01:10:43;100157.34;;;21.03;60.16
74310;BME280;62722;51.142;17.052;2022-08-05T01:13:15;100157.03;;;21.06;60.05
74310;BME280;62722;51.142;17.052;2022-08-05T01:15:52;100152.97;;;21.10;59.68
74310;BME280;62722;51.142;17.052;2022-08-05T01:18:25;100150.00;;;21.05;59.86
74310;BME280;62722;51.142;17.052;2022-08-05T01:21:08;100149.16;;;21.05;60.15
74310;BME280;62722;51.142;17.052;2022-08-05T01:23:53;100146.97;;;21.00;60.06
74310;BME280;62722;51.142;17.052;2022-08-05T01:26:43;100141.59;;;21.00;60.12
74310;BME280;62722;51.142;17.052;2022-08-05T01:29:24;100140.75;;;21.00;60.12
74310;BME280;62722;51.142;17.052;2022-08-05T01:31:58;100132.72;;;20.92;60.17
74310;BME280;62722;51.142;17.052;2022-08-05T01:34:30;100138.25;;;20.98;60.25
74310;BME280;62722;51.142;17.052;2022-08-05T01:37:04;100137.91;;;21.01;59.96
74310;BME280;62722;51.142;17.052;2022-08-05T01:39:33;100138.56;;;21.03;59.85
74310;BME280;62722;51.142;17.052;2022-08-05T01:42:04;100134.41;;;20.93;60.21
74310;BME280;62722;51.142;17.052;2022-08-05T01:44:34;100127.38;;;20.83;60.37
74310;BME280;62722;51.142;17.052;2022-08-05T01:47:04;100127.53;;;20.82;60.67
74310;BME280;62722;51.142;17.052;2022-08-05T01:49:32;100116.50;;;20.69;60.88
74310;BME280;62722;51.142;17.052;2022-08-05T01:52:02;100127.53;;;20.82;60.75
74310;BME280;62722;51.142;17.052;2022-08-05T01:54:33;100109.47;;;20.76;60.62
74310;BME280;62722;51.142;17.052;2022-08-05T01:57:03;100119.50;;;20.74;60.65
74310;BME280;62722;51.142;17.052;2022-08-05T01:59:34;100120.69;;;20.63;60.87
74310;BME280;62722;51.142;17.052;2022-08-05T02:02:03;100126.69;;;20.73;60.74
74310;BME280;62722;51.142;17.052;2022-08-05T02:04:34;100128.56;;;20.73;60.81
74310;BME280;62722;51.142;17.052;2022-08-05T02:07:02;100122.03;;;20.67;61.09
74310;BME280;62722;51.142;17.052;2022-08-05T02:09:30;100127.22;;;20.61;61.47
74310;BME280;62722;51.142;17.052;2022-08-05T02:12:02;100115.50;;;20.62;61.34
74310;BME280;62722;51.142;17.052;2022-08-05T02:14:36;100119.69;;;20.56;61.40
74310;BME280;62722;51.142;17.052;2022-08-05T02:17:09;100115.50;;;20.46;61.84
74310;BME280;62722;51.142;17.052;2022-08-05T02:19:43;100127.41;;;20.43;62.25
74310;BME280;62722;51.142;17.052;2022-08-05T02:22:15;100121.34;;;20.41;61.85
74310;BME280;62722;51.142;17.052;2022-08-05T02:24:46;100116.81;;;20.33;62.30
74310;BME280;62722;51.142;17.052;2022-08-05T02:27:17;100116.81;;;20.42;62.16
74310;BME280;62722;51.142;17.052;2022-08-05T02:29:47;100115.50;;;20.46;61.77
74310;BME280;62722;51.142;17.052;2022-08-05T02:32:17;100111.66;;;20.32;62.18
74310;BME280;62722;51.142;17.052;2022-08-05T02:34:46;100109.91;;;20.23;62.35
74310;BME280;62722;51.142;17.052;2022-08-05T02:37:15;100097.03;;;20.26;62.38
74310;BME280;62722;51.142;17.052;2022-08-05T02:39:45;100102.75;;;20.31;62.13
74310;BME280;62722;51.142;17.052;2022-08-05T02:42:14;100106.28;;;20.32;62.00
74310;BME280;62722;51.142;17.052;2022-08-05T02:44:43;100113.09;;;20.26;62.29
74310;BME280;62722;51.142;17.052;2022-08-05T02:47:13;100112.09;;;20.27;62.35
74310;BME280;62722;51.142;17.052;2022-08-05T02:49:43;100102.38;;;20.18;62.41
74310;BME280;62722;51.142;17.052;2022-08-05T02:52:14;100111.59;;;20.16;62.74
74310;BME280;62722;51.142;17.052;2022-08-05T02:54:42;100110.25;;;20.20;62.55
74310;BME280;62722;51.142;17.052;2022-08-05T02:57:13;100109.38;;;20.11;62.67
74310;BME280;62722;51.142;17.052;2022-08-05T02:59:43;100099.84;;;20.09;62.93
74310;BME280;62722;51.142;17.052;2022-08-05T03:02:13;100104.00;;;20.03;62.97
74310;BME280;62722;51.142;17.052;2022-08-05T03:04:43;100092.94;;;19.90;63.56
74310;BME280;62722;51.142;17.052;2022-08-05T03:07:11;100101.84;;;19.99;63.32
74310;BME280;62722;51.142;17.052;2022-08-05T03:09:41;100094.81;;;19.98;63.02
74310;BME280;62722;51.142;17.052;2022-08-05T03:12:09;100092.47;;;19.95;63.05
74310;BME280;62722;51.142;17.052;2022-08-05T03:14:36;100095.66;;;19.98;63.15
74310;BME280;62722;51.142;17.052;2022-08-05T03:17:04;100093.47;;;19.93;63.03
74310;BME280;62722;51.142;17.052;2022-08-05T03:19:32;100080.22;;;19.92;63.13
74310;BME280;62722;51.142;17.052;2022-08-05T03:22:00;100090.63;;;19.95;63.07
74310;BME280;62722;51.142;17.052;2022-08-05T03:24:27;100088.38;;;19.74;63.96
74310;BME280;62722;51.142;17.052;2022-08-05T03:26:55;100084.34;;;19.70;63.94
74310;BME280;62722;51.142;17.052;2022-08-05T03:29:22;100086.00;;;19.63;64.59
74310;BME280;62722;51.142;17.052;2022-08-05T03:31:50;100087.00;;;19.62;64.63
74310;BME280;62722;51.142;17.052;2022-08-05T03:34:18;100084.88;;;19.66;64.44
74310;BME280;62722;51.142;17.052;2022-08-05T03:36:47;100087.84;;;19.63;64.44
74310;BME280;62722;51.142;17.052;2022-08-05T03:39:15;100075.63;;;19.60;64.64
74310;BME280;62722;51.142;17.052;2022-08-05T03:41:42;100076.47;;;19.61;64.46
74310;BME280;62722;51.142;17.052;2022-08-05T03:44:09;100082.84;;;19.68;64.39
74310;BME280;62722;51.142;17.052;2022-08-05T03:46:37;100084.88;;;19.74;64.04
74310;BME280;62722;51.142;17.052;2022-08-05T03:49:05;100081.56;;;19.80;63.71
74310;BME280;62722;51.142;17.052;2022-08-05T03:51:37;100077.66;;;19.74;64.09
74310;BME280;62722;51.142;17.052;2022-08-05T03:54:11;100081.88;;;19.85;63.63
74310;BME280;62722;51.142;17.052;2022-08-05T03:56:42;100083.38;;;19.79;63.76
74310;BME280;62722;51.142;17.052;2022-08-05T03:59:15;100088.56;;;19.73;64.13
74310;BME280;62722;51.142;17.052;2022-08-05T04:01:46;100084.38;;;19.78;63.91
74310;BME280;62722;51.142;17.052;2022-08-05T04:04:16;100083.06;;;19.82;63.77
74310;BME280;62722;51.142;17.052;2022-08-05T04:06:46;100083.22;;;19.81;64.06
74310;BME280;62722;51.142;17.052;2022-08-05T04:09:16;100067.97;;;19.81;63.49
74310;BME280;62722;51.142;17.052;2022-08-05T04:11:44;100082.91;;;19.84;63.83
74310;BME280;62722;51.142;17.052;2022-08-05T04:14:11;100072.50;;;19.81;63.99
74310;BME280;62722;51.142;17.052;2022-08-05T04:16:38;100071.38;;;19.91;63.74
74310;BME280;62722;51.142;17.052;2022-08-05T04:19:10;100082.91;;;20.00;63.45
74310;BME280;62722;51.142;17.052;2022-08-05T04:21:37;100082.25;;;19.98;63.63
74310;BME280;62722;51.142;17.052;2022-08-05T04:24:05;100066.19;;;20.06;63.24
74310;BME280;62722;51.142;17.052;2022-08-05T04:26:34;100069.69;;;20.15;63.24
74310;BME280;62722;51.142;17.052;2022-08-05T04:29:02;100065.16;;;20.07;62.93
74310;BME280;62722;51.142;17.052;2022-08-05T04:31:29;100072.88;;;20.18;62.70
74310;BME280;62722;51.142;17.052;2022-08-05T04:33:58;100060.72;;;20.32;62.95
74310;BME280;62722;51.142;17.052;2022-08-05T04:36:26;100060.38;;;20.35;62.00
74310;BME280;62722;51.142;17.052;2022-08-05T04:38:53;100057.50;;;20.45;62.30
74310;BME280;62722;51.142;17.052;2022-08-05T04:41:22;100064.22;;;20.57;61.79
74310;BME280;62722;51.142;17.052;2022-08-05T04:43:51;100049.63;;;20.59;61.21
74310;BME280;62722;51.142;17.052;2022-08-05T04:46:18;100066.53;;;20.68;61.65
74310;BME280;62722;51.142;17.052;2022-08-05T04:48:45;100073.53;;;20.85;61.09
74310;BME280;62722;51.142;17.052;2022-08-05T04:51:13;100067.47;;;21.15;59.93
74310;BME280;62722;51.142;17.052;2022-08-05T04:53:42;100069.97;;;21.56;59.03
74310;BME280;62722;51.142;17.052;2022-08-05T04:56:09;100071.81;;;21.94;57.76
74310;BME280;62722;51.142;17.052;2022-08-05T04:58:37;100078.44;;;22.06;56.69
74310;BME280;62722;51.142;17.052;2022-08-05T05:01:05;100078.16;;;22.01;57.55
74310;BME280;62722;51.142;17.052;2022-08-05T05:03:33;100077.94;;;22.03;56.99
74310;BME280;62722;51.142;17.052;2022-08-05T05:06:00;100072.78;;;22.47;56.45
74310;BME280;62722;51.142;17.052;2022-08-05T05:08:28;100071.94;;;22.84;55.25
74310;BME280;62722;51.142;17.052;2022-08-05T05:10:56;100066.66;;;23.05;54.16
74310;BME280;62722;51.142;17.052;2022-08-05T05:13:23;100081.50;;;23.30;53.25
74310;BME280;62722;51.142;17.052;2022-08-05T05:15:52;100071.94;;;23.57;52.49
74310;BME280;62722;51.142;17.052;2022-08-05T05:18:21;100075.81;;;23.69;52.63
74310;BME280;62722;51.142;17.052;2022-08-05T05:20:49;100066.38;;;23.94;51.58
74310;BME280;62722;51.142;17.052;2022-08-05T05:23:16;100068.16;;;23.87;51.72
74310;BME280;62722;51.142;17.052;2022-08-05T05:25:44;100071.25;;;24.05;51.38
74310;BME280;62722;51.142;17.052;2022-08-05T05:28:11;100052.91;;;24.37;50.11
74310;BME280;62722;51.142;17.052;2022-08-05T05:30:40;100072.44;;;24.17;50.98
74310;BME280;62722;51.142;17.052;2022-08-05T05:33:07;100064.22;;;24.26;50.84
74310;BME280;62722;51.142;17.052;2022-08-05T05:35:36;100062.53;;;24.46;50.03
74310;BME280;62722;51.142;17.052;2022-08-05T05:38:04;100071.03;;;24.98;48.98
74310;BME280;62722;51.142;17.052;2022-08-05T05:40:32;100071.22;;;24.90;49.46
74310;BME280;62722;51.142;17.052;2022-08-05T05:43:00;100058.91;;;25.15;48.40
74310;BME280;62722;51.142;17.052;2022-08-05T05:45:27;100068.47;;;25.18;48.51
74310;BME280;62722;51.142;17.052;2022-08-05T05:47:57;100066.53;;;25.46;48.51
74310;BME280;62722;51.142;17.052;2022-08-05T05:50:24;100072.44;;;25.56;47.72
74310;BME280;62722;51.142;17.052;2022-08-05T05:52:53;100054.41;;;25.70;47.35
74310;BME280;62722;51.142;17.052;2022-08-05T05:55:23;100060.59;;;26.51;46.38
74310;BME280;62722;51.142;17.052;2022-08-05T05:57:50;100071.22;;;26.92;45.66
74310;BME280;62722;51.142;17.052;2022-08-05T06:00:20;100056.25;;;26.83;45.11
74310;BME280;62722;51.142;17.052;2022-08-05T06:03:03;100069.34;;;26.40;45.99
74310;BME280;62722;51.142;17.052;2022-08-05T06:05:31;100068.09;;;26.95;45.63
74310;BME280;62722;51.142;17.052;2022-08-05T06:08:04;100066.44;;;27.65;44.05
74310;BME280;62722;51.142;17.052;2022-08-05T06:10:32;100067.66;;;27.75;43.30
74310;BME280;62722;51.142;17.052;2022-08-05T06:13:10;100066.25;;;27.97;43.65
74310;BME280;62722;51.142;17.052;2022-08-05T06:15:43;100054.94;;;28.14;43.00
74310;BME280;62722;51.142;17.052;2022-08-05T06:18:30;100054.94;;;28.70;41.60
74310;BME280;62722;51.142;17.052;2022-08-05T06:21:00;100044.53;;;28.35;41.87
74310;BME280;62722;51.142;17.052;2022-08-05T06:23:29;100066.69;;;28.01;42.86
74310;BME280;62722;51.142;17.052;2022-08-05T06:25:57;100049.47;;;28.94;41.26
74310;BME280;62722;51.142;17.052;2022-08-05T06:28:25;100053.41;;;29.17;41.00
74310;BME280;62722;51.142;17.052;2022-08-05T06:30:52;100054.78;;;30.22;39.15
74310;BME280;62722;51.142;17.052;2022-08-05T06:33:20;100055.47;;;30.17;39.06
74310;BME280;62722;51.142;17.052;2022-08-05T06:35:47;100040.31;;;30.86;37.53
74310;BME280;62722;51.142;17.052;2022-08-05T06:38:16;100055.25;;;30.83;37.64
74310;BME280;62722;51.142;17.052;2022-08-05T06:40:59;100050.59;;;30.49;38.46
74310;BME280;62722;51.142;17.052;2022-08-05T06:43:38;100047.88;;;30.49;38.23
74310;BME280;62722;51.142;17.052;2022-08-05T06:46:05;100039.59;;;30.03;39.21
74310;BME280;62722;51.142;17.052;2022-08-05T06:48:33;100057.28;;;30.35;39.13
74310;BME280;62722;51.142;17.052;2022-08-05T06:51:02;100057.91;;;29.95;39.68
74310;BME280;62722;51.142;17.052;2022-08-05T06:53:30;100052.72;;;30.06;38.84
74310;BME280;62722;51.142;17.052;2022-08-05T06:55:59;100041.75;;;30.88;37.81
74310;BME280;62722;51.142;17.052;2022-08-05T06:58:28;100051.34;;;31.03;36.90
74310;BME280;62722;51.142;17.052;2022-08-05T07:00:57;100051.94;;;30.93;37.59
74310;BME280;62722;51.142;17.052;2022-08-05T07:03:24;100052.38;;;32.05;35.46
74310;BME280;62722;51.142;17.052;2022-08-05T07:05:52;100049.28;;;32.13;35.28
74310;BME280;62722;51.142;17.052;2022-08-05T07:08:19;100050.47;;;31.37;36.60
74310;BME280;62722;51.142;17.052;2022-08-05T07:10:48;100053.81;;;32.69;35.10
74310;BME280;62722;51.142;17.052;2022-08-05T07:13:17;100043.56;;;32.98;34.07
74310;BME280;62722;51.142;17.052;2022-08-05T07:16:01;100042.94;;;32.57;34.69
74310;BME280;62722;51.142;17.052;2022-08-05T07:18:46;100035.50;;;33.08;33.94
74310;BME280;62722;51.142;17.052;2022-08-05T07:21:14;100038.75;;;33.43;32.71
74310;BME280;62722;51.142;17.052;2022-08-05T07:23:42;100041.91;;;32.97;33.21
74310;BME280;62722;51.142;17.052;2022-08-05T07:26:09;100034.09;;;33.44;32.79
74310;BME280;62722;51.142;17.052;2022-08-05T07:28:38;100034.59;;;33.62;33.11
74310;BME280;62722;51.142;17.052;2022-08-05T07:31:05;100035.31;;;34.28;31.91
74310;BME280;62722;51.142;17.052;2022-08-05T07:33:33;100023.16;;;34.19;32.12
74310;BME280;62722;51.142;17.052;2022-08-05T07:36:00;100036.47;;;34.37;31.79
74310;BME280;62722;51.142;17.052;2022-08-05T07:38:28;100032.94;;;34.37;31.25
74310;BME280;62722;51.142;17.052;2022-08-05T07:40:55;100042.41;;;34.24;31.94
74310;BME280;62722;51.142;17.052;2022-08-05T07:43:23;100020.84;;;34.06;31.96
74310;BME280;62722;51.142;17.052;2022-08-05T07:53:31;100033.47;;;37.26;27.81
74310;BME280;62722;51.142;17.052;2022-08-05T08:22:02;100017.00;;;38.82;25.34
74310;BME280;62722;51.142;17.052;2022-08-05T08:24:30;100016.38;;;38.27;25.48
74310;BME280;62722;51.142;17.052;2022-08-05T08:26:58;100011.09;;;37.97;25.17
74310;BME280;62722;51.142;17.052;2022-08-05T08:29:25;100006.84;;;38.48;24.86
74310;BME280;62722;51.142;17.052;2022-08-05T08:31:53;100007.50;;;38.35;24.57
74310;BME280;62722;51.142;17.052;2022-08-05T08:34:22;100001.50;;;37.94;24.57
74310;BME280;62722;51.142;17.052;2022-08-05T08:36:50;100020.84;;;38.81;23.88
74310;BME280;62722;51.142;17.052;2022-08-05T08:39:21;100014.13;;;38.34;25.44
74310;BME280;62722;51.142;17.052;2022-08-05T08:41:50;100010.66;;;38.53;23.84
74310;BME280;62722;51.142;17.052;2022-08-05T08:47:23;100008.19;;;38.80;24.73
74310;BME280;62722;51.142;17.052;2022-08-05T08:49:53;100002.88;;;38.60;23.63
74310;BME280;62722;51.142;17.052;2022-08-05T08:56:20;100006.94;;;40.00;22.28
74310;BME280;62722;51.142;17.052;2022-08-05T09:02:39;100005.88;;;39.39;22.58
74310;BME280;62722;51.142;17.052;2022-08-05T09:05:10;100004.84;;;37.27;25.60
74310;BME280;62722;51.142;17.052;2022-08-05T09:07:38;100011.28;;;38.44;24.72
74310;BME280;62722;51.142;17.052;2022-08-05T09:10:06;100002.91;;;39.92;23.49
74310;BME280;62722;51.142;17.052;2022-08-05T09:12:37;99992.91;;;39.96;22.89
74310;BME280;62722;51.142;17.052;2022-08-05T09:15:06;99996.97;;;39.85;22.46
74310;BME280;62722;51.142;17.052;2022-08-05T09:17:33;99997.72;;;40.42;21.12
74310;BME280;62722;51.142;17.052;2022-08-05T09:20:01;99986.91;;;39.75;22.62
74310;BME280;62722;51.142;17.052;2022-08-05T09:23:02;99993.69;;;42.64;19.97
74310;BME280;62722;51.142;17.052;2022-08-05T09:25:30;99990.16;;;41.70;20.42
74310;BME280;62722;51.142;17.052;2022-08-05T09:28:08;99990.13;;;40.93;20.22
74310;BME280;62722;51.142;17.052;2022-08-05T09:30:36;99995.75;;;41.92;18.40
74310;BME280;62722;51.142;17.052;2022-08-05T09:33:04;100000.09;;;43.04;18.21
74310;BME280;62722;51.142;17.052;2022-08-05T09:35:31;100001.31;;;43.38;17.62
74310;BME280;62722;51.142;17.052;2022-08-05T09:37:59;99995.78;;;42.98;17.64
74310;BME280;62722;51.142;17.052;2022-08-05T09:40:29;99995.91;;;42.32;17.71
74310;BME280;62722;51.142;17.052;2022-08-05T09:42:58;99986.44;;;42.10;18.21
74310;BME280;62722;51.142;17.052;2022-08-05T09:45:38;99985.00;;;42.13;18.65
74310;BME280;62722;51.142;17.052;2022-08-05T09:48:19;99985.94;;;42.53;18.80
74310;BME280;62722;51.142;17.052;2022-08-05T09:50:48;99975.72;;;43.75;16.18
74310;BME280;62722;51.142;17.052;2022-08-05T09:53:16;99977.19;;;44.24;16.05
74310;BME280;62722;51.142;17.052;2022-08-05T09:55:44;99984.56;;;41.97;17.46
74310;BME280;62722;51.142;17.052;2022-08-05T09:58:13;99977.16;;;44.41;17.02
74310;BME280;62722;51.142;17.052;2022-08-05T10:00:54;99982.44;;;45.89;14.66
74310;BME280;62722;51.142;17.052;2022-08-05T10:03:22;99975.84;;;45.53;14.56
74310;BME280;62722;51.142;17.052;2022-08-05T10:06:04;99986.09;;;42.87;16.57
74310;BME280;62722;51.142;17.052;2022-08-05T10:08:33;99986.50;;;44.02;15.30
74310;BME280;62722;51.142;17.052;2022-08-05T10:11:02;99976.16;;;42.86;15.83
74310;BME280;62722;51.142;17.052;2022-08-05T10:13:32;99968.38;;;44.77;15.33
74310;BME280;62722;51.142;17.052;2022-08-05T10:16:03;99968.28;;;44.48;15.41
74310;BME280;62722;51.142;17.052;2022-08-05T10:18:31;99977.16;;;44.88;13.91
74310;BME280;62722;51.142;17.052;2022-08-05T10:21:00;99973.19;;;45.56;14.22
74310;BME280;62722;51.142;17.052;2022-08-05T10:23:29;99978.41;;;43.24;15.22
74310;BME280;62722;51.142;17.052;2022-08-05T10:25:59;99970.34;;;44.04;14.91
74310;BME280;62722;51.142;17.052;2022-08-05T10:28:27;99966.94;;;45.59;13.57
74310;BME280;62722;51.142;17.052;2022-08-05T10:30:56;99966.91;;;46.90;13.24
74310;BME280;62722;51.142;17.052;2022-08-05T10:33:26;99958.81;;;47.62;13.55
74310;BME280;62722;51.142;17.052;2022-08-05T10:35:55;99956.91;;;42.90;15.32
74310;BME280;62722;51.142;17.052;2022-08-05T10:38:25;99947.34;;;44.88;14.67
74310;BME280;62722;51.142;17.052;2022-08-05T10:41:00;99945.25;;;45.85;13.24
74310;BME280;62722;51.142;17.052;2022-08-05T10:43:38;99954.75;;;42.56;15.51
74310;BME280;62722;51.142;17.052;2022-08-05T10:46:12;99940.38;;;43.50;14.21
74310;BME280;62722;51.142;17.052;2022-08-05T10:48:42;99939.09;;;44.71;14.16
74310;BME280;62722;51.142;17.052;2022-08-05T10:51:11;99943.03;;;45.29;13.56
74310;BME280;62722;51.142;17.052;2022-08-05T10:53:41;99949.84;;;45.40;14.15
74310;BME280;62722;51.142;17.052;2022-08-05T10:56:12;99941.13;;;46.36;13.33
74310;BME280;62722;51.142;17.052;2022-08-05T10:59:01;99938.34;;;44.45;13.66
74310;BME280;62722;51.142;17.052;2022-08-05T12:21:49;99900.84;;;48.30;10.82
74310;BME280;62722;51.142;17.052;2022-08-05T12:24:18;99900.00;;;47.46;10.33
74310;BME280;62722;51.142;17.052;2022-08-05T12:26:46;99898.03;;;47.59;9.97
74310;BME280;62722;51.142;17.052;2022-08-05T12:41:06;99887.97;;;44.38;11.42
74310;BME280;62722;51.142;17.052;2022-08-05T12:43:34;99883.16;;;44.00;12.04
74310;BME280;62722;51.142;17.052;2022-08-05T12:46:01;99884.59;;;44.24;12.54
74310;BME280;62722;51.142;17.052;2022-08-05T12:48:37;99877.91;;;45.13;10.69
74310;BME280;62722;51.142;17.052;2022-08-05T12:51:11;99889.38;;;44.52;11.23
74310;BME280;62722;51.142;17.052;2022-08-05T12:53:42;99882.13;;;44.22;12.47
74310;BME280;62722;51.142;17.052;2022-08-05T12:56:21;99886.91;;;42.62;13.52
74310;BME280;62722;51.142;17.052;2022-08-05T12:59:16;99879.28;;;42.76;12.66
74310;BME280;62722;51.142;17.052;2022-08-05T13:01:53;99881.31;;;42.53;13.21
74310;BME280;62722;51.142;17.052;2022-08-05T13:04:25;99885.88;;;42.97;12.52
74310;BME280;62722;51.142;17.052;2022-08-05T13:06:56;99885.34;;;42.78;12.02
74310;BME280;62722;51.142;17.052;2022-08-05T13:09:25;99875.63;;;41.97;12.36
74310;BME280;62722;51.142;17.052;2022-08-05T13:12:01;99867.16;;;43.63;11.53
74310;BME280;62722;51.142;17.052;2022-08-05T13:14:35;99869.91;;;44.44;11.52
74310;BME280;62722;51.142;17.052;2022-08-05T13:17:08;99880.63;;;45.63;11.42
74310;BME280;62722;51.142;17.052;2022-08-05T13:19:36;99869.50;;;45.95;10.52
74310;BME280;62722;51.142;17.052;2022-08-05T13:22:07;99868.44;;;46.33;10.13
74310;BME280;62722;51.142;17.052;2022-08-05T13:25:45;99874.75;;;46.54;9.65
74310;BME280;62722;51.142;17.052;2022-08-05T13:28:14;99862.50;;;47.07;9.49
74310;BME280;62722;51.142;17.052;2022-08-05T13:30:42;99867.09;;;44.52;10.72
74310;BME280;62722;51.142;17.052;2022-08-05T13:33:09;99858.59;;;45.37;10.55
74310;BME280;62722;51.142;17.052;2022-08-05T13:35:37;99858.41;;;46.20;10.95
74310;BME280;62722;51.142;17.052;2022-08-05T13:38:04;99854.03;;;45.65;11.64
74310;BME280;62722;51.142;17.052;2022-08-05T13:40:31;99853.97;;;47.28;10.39
74310;BME280;62722;51.142;17.052;2022-08-05T13:42:59;99860.56;;;46.59;9.57
74310;BME280;62722;51.142;17.052;2022-08-05T13:45:28;99850.16;;;45.45;11.11
74310;BME280;62722;51.142;17.052;2022-08-05T13:47:56;99861.38;;;46.60;11.58
74310;BME280;62722;51.142;17.052;2022-08-05T13:50:24;99853.38;;;46.01;11.45
74310;BME280;62722;51.142;17.052;2022-08-05T13:52:51;99848.19;;;47.49;10.49
74310;BME280;62722;51.142;17.052;2022-08-05T13:55:19;99863.56;;;46.78;10.52
74310;BME280;62722;51.142;17.052;2022-08-05T13:57:47;99859.63;;;46.67;9.42
74310;BME280;62722;51.142;17.052;2022-08-05T14:00:15;99861.78;;;47.22;11.30
74310;BME280;62722;51.142;17.052;2022-08-05T14:02:44;99864.25;;;46.75;10.33
74310;BME280;62722;51.142;17.052;2022-08-05T14:05:12;99855.09;;;45.93;11.31
74310;BME280;62722;51.142;17.052;2022-08-05T14:07:41;99840.88;;;45.74;10.19
74310;BME280;62722;51.142;17.052;2022-08-05T14:10:11;99837.84;;;44.76;11.33
74310;BME280;62722;51.142;17.052;2022-08-05T14:12:39;99848.69;;;43.67;12.42
74310;BME280;62722;51.142;17.052;2022-08-05T14:15:07;99836.25;;;43.13;13.29
74310;BME280;62722;51.142;17.052;2022-08-05T14:17:35;99841.97;;;43.34;12.35
74310;BME280;62722;51.142;17.052;2022-08-05T14:20:06;99839.88;;;43.31;13.60
74310;BME280;62722;51.142;17.052;2022-08-05T14:22:33;99839.84;;;45.58;12.85
74310;BME280;62722;51.142;17.052;2022-08-05T14:25:01;99845.06;;;46.25;11.02
74310;BME280;62722;51.142;17.052;2022-08-05T14:27:28;99839.25;;;45.11;11.30
74310;BME280;62722;51.142;17.052;2022-08-05T14:29:56;99841.84;;;44.57;13.14
74310;BME280;62722;51.142;17.052;2022-08-05T14:32:23;99840.16;;;43.81;13.71
74310;BME280;62722;51.142;17.052;2022-08-05T14:34:51;99838.59;;;44.55;13.44
74310;BME280;62722;51.142;17.052;2022-08-05T14:37:20;99834.78;;;43.33;14.52
74310;BME280;62722;51.142;17.052;2022-08-05T14:39:47;99834.13;;;42.45;13.96
74310;BME280;62722;51.142;17.052;2022-08-05T14:42:18;99844.25;;;41.43;15.08
74310;BME280;62722;51.142;17.052;2022-08-05T14:44:45;99823.69;;;39.72;15.78
74310;BME280;62722;51.142;17.052;2022-08-05T14:47:12;99828.25;;;38.40;18.24
74310;BME280;62722;51.142;17.052;2022-08-05T14:49:40;99845.22;;;38.00;17.45
74310;BME280;62722;51.142;17.052;2022-08-05T14:52:07;99845.19;;;37.32;19.36
74310;BME280;62722;51.142;17.052;2022-08-05T14:54:37;99834.81;;;37.19;19.48
74310;BME280;62722;51.142;17.052;2022-08-05T14:57:04;99839.16;;;37.25;18.89
74310;BME280;62722;51.142;17.052;2022-08-05T14:59:32;99825.03;;;36.93;19.14
74310;BME280;62722;51.142;17.052;2022-08-05T15:01:59;99828.13;;;36.81;21.04
74310;BME280;62722;51.142;17.052;2022-08-05T15:04:27;99840.31;;;36.65;18.43
74310;BME280;62722;51.142;17.052;2022-08-05T15:06:54;99821.06;;;36.60;20.93
74310;BME280;62722;51.142;17.052;2022-08-05T15:09:22;99824.63;;;36.55;20.44
74310;BME280;62722;51.142;17.052;2022-08-05T15:11:51;99813.63;;;36.55;24.09
74310;BME280;62722;51.142;17.052;2022-08-05T15:14:18;99814.50;;;36.46;21.11